createdAt,value
2023-02-15T00:38:34.334Z,101690.56
2023-02-15T00:43:47.630Z,101701.78
2023-02-15T00:53:45.798Z,101687.47
2023-02-15T01:18:14.222Z,101708.19
2023-02-15T01:19:37.373Z,101697.94
2023-02-15T01:21:00.158Z,101696.97
2023-02-15T01:24:43.955Z,101691.75
2023-02-15T01:28:10.058Z,101669.66
2023-02-15T01:29:49.862Z,101668.88
2023-02-15T01:31:13.544Z,101684.31
2023-02-15T01:38:22.468Z,101658.25
2023-02-15T01:43:22.472Z,101653.38
2023-02-15T01:48:33.368Z,101661.03
2023-02-15T01:55:38.433Z,101653.31
2023-02-15T02:00:51.322Z,101636.25
2023-02-15T02:03:31.350Z,101650.72
2023-02-15T02:21:29.761Z,101638.06
2023-02-15T02:23:56.570Z,101615.72
2023-02-15T02:25:37.909Z,101611.25
2023-02-15T02:27:25.208Z,101610.28
2023-02-15T02:29:45.785Z,101608.59
2023-02-15T02:34:29.886Z,101599.03
2023-02-15T02:42:55.685Z,101599.66
2023-02-15T02:44:46.839Z,101583.22
2023-02-15T02:46:36.933Z,101590.91
2023-02-15T02:49:26.916Z,101572.94
2023-02-15T02:50:52.840Z,101573.03
2023-02-15T02:58:17.569Z,101571.56
2023-02-15T02:59:49.050Z,101579.97
2023-02-15T03:01:18.031Z,101575.94
2023-02-15T03:03:09.005Z,101572.44
2023-02-15T03:04:40.953Z,101562.84
2023-02-15T03:06:25.122Z,101573.09
2023-02-15T03:07:53.519Z,101567.81
2023-02-15T03:10:03.734Z,101564.53
2023-02-15T03:12:13.615Z,101568.16
2023-02-15T03:13:47.514Z,101557.53
2023-02-15T03:15:57.188Z,101580.81
2023-02-15T03:17:31.059Z,101582.50
2023-02-15T03:19:04.047Z,101575.75
2023-02-15T03:20:34.411Z,101567.19
2023-02-15T03:22:10.589Z,101560.28
2023-02-15T03:24:48.327Z,101583.53
2023-02-15T03:36:18.493Z,101569.31
2023-02-15T03:38:14.347Z,101559.06
2023-02-15T03:40:38.466Z,101562.56
2023-02-15T03:42:46.925Z,101562.31
2023-02-15T03:44:52.063Z,101574.56
2023-02-15T03:47:09.806Z,101549.66
2023-02-15T03:49:11.851Z,101559.91
2023-02-15T03:51:00.645Z,101553.16
2023-02-15T03:52:27.470Z,101552.31
2023-02-15T03:53:54.470Z,101555.56
2023-02-15T03:55:20.364Z,101572.25
2023-02-15T03:57:11.218Z,101563.84
2023-02-15T03:58:57.846Z,101576.78
2023-02-15T04:00:43.427Z,101563.84
2023-02-15T04:02:25.869Z,101572.56
2023-02-15T04:04:07.021Z,101563.94
2023-02-15T04:05:40.311Z,101564.78
2023-02-15T04:07:09.700Z,101567.78
2023-02-15T04:08:51.899Z,101571.53
2023-02-15T04:10:45.372Z,101557.75
2023-02-15T04:12:24.309Z,101560.50
2023-02-15T04:14:35.157Z,101558.88
2023-02-15T04:16:23.230Z,101558.16
2023-02-15T04:18:17.319Z,101554.66
2023-02-15T04:20:15.230Z,101567.59
2023-02-15T04:21:56.944Z,101570.16
2023-02-15T04:23:42.232Z,101540.88
2023-02-15T04:25:14.397Z,101538.34
2023-02-15T04:26:38.856Z,101538.22
2023-02-15T04:28:03.825Z,101543.53
2023-02-15T04:29:27.096Z,101540.97
2023-02-15T04:30:50.018Z,101530.63
2023-02-15T04:32:16.121Z,101534.97
2023-02-15T04:33:40.392Z,101561.78
2023-02-15T04:35:01.988Z,101555.63
2023-02-15T04:36:25.796Z,101553.88
2023-02-15T04:37:52.044Z,101540.03
2023-02-15T04:39:15.433Z,101543.47
2023-02-15T04:40:39.165Z,101546.09
2023-02-15T04:42:02.118Z,101536.53
2023-02-15T04:43:26.084Z,101539.84
2023-02-15T04:44:48.260Z,101524.47
2023-02-15T04:46:21.403Z,101549.44
2023-02-15T04:47:47.852Z,101539.84
2023-02-15T04:49:18.335Z,101531.22
2023-02-15T04:50:42.344Z,101535.59
2023-02-15T04:52:08.054Z,101530.56
2023-02-15T04:53:34.187Z,101546.78
2023-02-15T04:58:24.415Z,101544.56
2023-02-15T05:00:40.177Z,101528.38
2023-02-15T05:02:05.824Z,101548.41
2023-02-15T05:03:27.629Z,101550.72
2023-02-15T05:04:50.560Z,101538.13
2023-02-15T05:06:27.289Z,101547.38
2023-02-15T05:08:14.202Z,101535.50
2023-02-15T05:19:07.355Z,101554.16
2023-02-15T05:21:08.302Z,101546.56
2023-02-15T05:22:48.241Z,101538.06
2023-02-15T05:25:01.150Z,101526.25
2023-02-15T05:26:54.829Z,101522.81
2023-02-15T05:28:54.100Z,101531.38
2023-02-15T05:30:41.369Z,101523.59
2023-02-15T05:32:24.744Z,101536.59
2023-02-15T05:34:04.004Z,101547.81
2023-02-15T05:37:46.387Z,101530.53
2023-02-15T05:50:34.026Z,101525.63
2023-02-15T05:52:14.670Z,101535.81
2023-02-15T05:53:44.288Z,101527.38
2023-02-15T05:55:28.281Z,101518.78
2023-02-15T05:57:06.054Z,101520.34
2023-02-15T05:58:32.985Z,101523.59
2023-02-15T06:07:05.980Z,101533.13
2023-02-15T06:22:14.453Z,101524.97
2023-02-15T06:43:38.418Z,101541.69
2023-02-15T06:49:00.819Z,101539.53
2023-02-15T06:53:35.507Z,101516.53
2023-02-15T07:01:07.075Z,101539.91
2023-02-15T07:03:53.892Z,101529.13
2023-02-15T07:14:46.497Z,101509.47
2023-02-15T07:22:19.097Z,101505.69
2023-02-15T07:50:53.412Z,101502.75
2023-02-15T07:52:18.934Z,101492.19
2023-02-15T07:53:41.635Z,101493.63
2023-02-15T07:55:03.976Z,101497.72
2023-02-15T07:56:42.273Z,101477.59
2023-02-15T07:58:05.204Z,101484.06
2023-02-15T07:59:28.453Z,101484.63
2023-02-15T08:01:05.262Z,101468.88
2023-02-15T08:02:38.281Z,101479.88
2023-02-15T08:04:05.909Z,101490.91
2023-02-15T08:05:31.630Z,101480.28
2023-02-15T08:07:05.517Z,101473.25
2023-02-15T08:08:57.648Z,101484.06
2023-02-15T08:11:03.791Z,101476.19
2023-02-15T08:12:28.903Z,101470.78
2023-02-15T08:14:26.051Z,101473.25
2023-02-15T08:16:37.454Z,101490.78
2023-02-15T08:23:58.562Z,101474.66
2023-02-15T08:28:51.864Z,101455.06
2023-02-15T08:30:22.194Z,101455.53
2023-02-15T08:31:44.997Z,101451.72
2023-02-15T08:33:59.808Z,101458.97
2023-02-15T08:36:40.808Z,101452.00
2023-02-15T08:45:41.595Z,101448.53
2023-02-15T09:15:49.113Z,101408.81
2023-02-15T09:26:11.943Z,101420.72
2023-02-15T09:30:12.816Z,101416.78
2023-02-15T09:31:39.499Z,101413.91
2023-02-15T09:33:05.270Z,101420.47
2023-02-15T09:34:50.255Z,101418.97
2023-02-15T09:36:37.580Z,101421.56
2023-02-15T09:46:35.857Z,101414.66
2023-02-15T09:48:41.903Z,101412.56
2023-02-15T09:51:23.678Z,101414.16
2023-02-15T09:57:02.029Z,101415.94
2023-02-15T09:59:35.423Z,101415.78
2023-02-15T10:01:20.241Z,101392.03
2023-02-15T10:02:59.102Z,101403.78
2023-02-15T10:04:54.818Z,101388.19
2023-02-15T10:09:25.123Z,101396.44
2023-02-15T10:11:42.826Z,101391.19
2023-02-15T10:13:48.679Z,101383.41
2023-02-15T10:18:07.538Z,101382.00
2023-02-15T10:20:17.972Z,101383.25
2023-02-15T10:22:16.322Z,101378.88
2023-02-15T10:24:03.555Z,101372.53
2023-02-15T10:25:42.371Z,101367.16
2023-02-15T10:27:26.058Z,101379.91
2023-02-15T10:31:47.793Z,101368.13
2023-02-15T10:33:30.896Z,101373.91
2023-02-15T10:35:06.563Z,101376.88
2023-02-15T10:36:41.711Z,101372.22
2023-02-15T10:38:30.448Z,101359.06
2023-02-15T10:40:15.724Z,101363.84
2023-02-15T10:42:07.616Z,101369.47
2023-02-15T10:44:13.042Z,101356.72
2023-02-15T10:45:46.643Z,101361.81
2023-02-15T10:47:47.533Z,101351.47
2023-02-15T10:49:35.902Z,101352.72
2023-02-15T10:51:06.192Z,101352.13
2023-02-15T10:52:52.634Z,101344.19
2023-02-15T10:54:34.735Z,101355.75
2023-02-15T10:56:09.065Z,101353.75
2023-02-15T11:03:27.794Z,101350.44
2023-02-15T11:05:04.761Z,101336.03
2023-02-15T11:06:32.888Z,101327.09
2023-02-15T11:08:02.472Z,101328.78
2023-02-15T11:09:38.449Z,101337.88
2023-02-15T11:11:14.343Z,101330.97
2023-02-15T11:12:55.628Z,101327.09
2023-02-15T11:14:26.599Z,101336.13
2023-02-15T11:16:01.682Z,101311.69
2023-02-15T11:17:37.730Z,101328.88
2023-02-15T11:19:04.709Z,101313.44
2023-02-15T11:20:33.690Z,101323.91
2023-02-15T11:22:04.888Z,101305.22
2023-02-15T11:23:37.193Z,101312.00
2023-02-15T11:25:14.985Z,101301.81
2023-02-15T11:26:49.723Z,101291.03
2023-02-15T11:28:19.942Z,101298.06
2023-02-15T11:29:50.070Z,101307.81
2023-02-15T11:34:14.742Z,101309.31
2023-02-15T11:35:49.658Z,101299.09
2023-02-15T11:37:31.850Z,101287.34
2023-02-15T11:39:16.768Z,101287.63
2023-02-15T11:40:48.487Z,101282.38
2023-02-15T11:42:23.255Z,101285.44
2023-02-15T11:44:03.584Z,101287.00
2023-02-15T11:46:00.755Z,101285.44
2023-02-15T11:50:14.452Z,101283.03
2023-02-15T11:51:39.194Z,101273.41
2023-02-15T11:53:07.218Z,101270.13
2023-02-15T11:54:34.481Z,101267.59
2023-02-15T11:56:00.620Z,101260.81
2023-02-15T11:57:32.481Z,101270.88
2023-02-15T11:58:59.555Z,101274.78
2023-02-15T12:00:37.140Z,101259.97
2023-02-15T12:02:00.899Z,101267.47
2023-02-15T12:03:36.680Z,101267.59
2023-02-15T12:05:23.217Z,101256.56
2023-02-15T12:06:51.418Z,101256.28
2023-02-15T12:08:23.946Z,101256.56
2023-02-15T12:10:42.302Z,101241.88
2023-02-15T12:14:52.569Z,101244.28
2023-02-15T12:16:31.975Z,101250.25
2023-02-15T12:17:59.897Z,101254.59
2023-02-15T12:19:49.542Z,101235.06
2023-02-15T12:21:27.511Z,101240.31
2023-02-15T12:23:00.004Z,101249.25
2023-02-15T12:24:32.853Z,101242.72
2023-02-15T12:31:31.948Z,101226.09
2023-02-15T12:33:37.026Z,101238.47
2023-02-15T12:35:11.602Z,101232.28
2023-02-15T12:36:57.849Z,101222.53
2023-02-15T12:38:39.916Z,101226.66
2023-02-15T12:40:41.488Z,101227.66
2023-02-15T12:43:00.149Z,101219.88
2023-02-15T12:44:35.949Z,101224.25
2023-02-15T12:46:37.990Z,101219.50
2023-02-15T12:48:29.282Z,101227.13
2023-02-15T12:50:40.080Z,101230.66
2023-02-15T12:53:27.662Z,101225.31
2023-02-15T12:58:38.902Z,101208.06
2023-02-15T13:00:34.711Z,101211.47
2023-02-15T13:02:08.298Z,101202.72
2023-02-15T13:03:46.896Z,101206.84
2023-02-15T13:05:24.752Z,101204.78
2023-02-15T13:11:36.525Z,101212.41
2023-02-15T13:12:59.433Z,101209.97
2023-02-15T13:14:29.730Z,101197.22
2023-02-15T13:15:54.727Z,101198.31
2023-02-15T13:17:19.334Z,101191.88
2023-02-15T13:18:45.493Z,101197.69
2023-02-15T13:20:21.287Z,101194.84
2023-02-15T13:21:47.503Z,101201.78
2023-02-15T13:23:36.342Z,101194.00
2023-02-15T13:25:09.613Z,101191.06
2023-02-15T13:26:50.936Z,101171.16
2023-02-15T13:28:36.621Z,101182.75
2023-02-15T13:30:13.896Z,101176.97
2023-02-15T13:31:44.004Z,101188.84
2023-02-15T13:33:19.698Z,101181.09
2023-02-15T13:34:57.997Z,101189.59
2023-02-15T13:36:53.028Z,101183.38
2023-02-15T13:41:13.349Z,101166.41
2023-02-15T13:42:44.694Z,101177.47
2023-02-15T13:44:40.957Z,101158.41
2023-02-15T13:46:26.728Z,101174.63
2023-02-15T13:48:01.531Z,101170.13
2023-02-15T13:50:25.073Z,101170.28
2023-02-15T13:53:11.590Z,101160.09
2023-02-15T13:55:03.990Z,101158.25
2023-02-15T13:56:36.198Z,101172.41
2023-02-15T13:58:25.696Z,101170.84
2023-02-15T14:02:52.866Z,101157.13
2023-02-15T14:04:51.316Z,101167.06
2023-02-15T14:06:40.305Z,101169.63
2023-02-15T14:08:11.645Z,101165.84
2023-02-15T14:09:48.165Z,101173.72
2023-02-15T14:11:18.595Z,101165.84
2023-02-15T14:13:10.101Z,101161.91
2023-02-15T14:14:51.841Z,101155.13
2023-02-15T14:16:25.850Z,101165.47
2023-02-15T14:18:03.481Z,101160.09
2023-02-15T14:19:31.594Z,101162.63
2023-02-15T14:21:04.659Z,101163.50
2023-02-15T14:22:37.802Z,101163.34
2023-02-15T14:24:16.434Z,101163.34
2023-02-15T14:25:43.873Z,101162.38
2023-02-15T14:27:19.118Z,101155.31
2023-02-15T14:28:48.187Z,101161.41
2023-02-15T14:30:18.506Z,101146.56
2023-02-15T14:31:48.023Z,101159.44
2023-02-15T14:33:35.209Z,101154.22
2023-02-15T14:35:02.105Z,101150.56
2023-02-15T14:36:29.188Z,101148.84
2023-02-15T14:41:11.673Z,101137.38
2023-02-15T14:42:41.369Z,101157.16
2023-02-15T14:44:12.135Z,101150.13
2023-02-15T14:45:48.334Z,101154.59
2023-02-15T14:47:33.202Z,101128.78
2023-02-15T14:50:47.159Z,101153.03
2023-02-15T14:52:39.880Z,101152.47
2023-02-15T15:09:03.292Z,101137.56
2023-02-15T15:10:55.161Z,101143.31
2023-02-15T15:12:44.142Z,101145.03
2023-02-15T15:14:11.611Z,101129.63
2023-02-15T15:15:47.583Z,101135.44
2023-02-15T15:17:16.813Z,101138.09
2023-02-15T15:18:49.438Z,101130.84
2023-02-15T15:23:57.169Z,101139.47
2023-02-15T15:41:47.691Z,101125.59
2023-02-15T15:44:12.531Z,101132.34
2023-02-15T15:47:24.830Z,101116.88
2023-02-15T16:51:16.967Z,101094.13
2023-02-15T16:59:23.407Z,101105.28
2023-02-15T17:06:42.369Z,101094.50
2023-02-15T17:08:17.176Z,101093.53
2023-02-15T17:09:52.551Z,101099.59
2023-02-15T17:11:22.731Z,101090.97
2023-02-15T17:13:02.599Z,101084.81
2023-02-15T17:14:34.699Z,101090.63
2023-02-15T17:16:34.439Z,101086.97
2023-02-15T17:18:01.269Z,101068.81
2023-02-15T17:19:27.344Z,101081.44
2023-02-15T17:20:52.653Z,101075.72
2023-02-15T17:22:35.246Z,101073.44
2023-02-15T17:24:03.865Z,101067.72
2023-02-15T17:25:43.732Z,101071.72
2023-02-15T17:27:19.107Z,101066.50
2023-02-15T17:28:51.748Z,101074.16
2023-02-15T17:30:19.199Z,101082.75
2023-02-15T17:31:53.395Z,101073.91
2023-02-15T17:33:30.250Z,101076.69
2023-02-15T17:35:18.628Z,101078.41
2023-02-15T17:37:13.639Z,101062.38
2023-02-15T17:40:01.059Z,101056.31
2023-02-15T17:42:28.214Z,101070.88
2023-02-15T17:44:03.238Z,101048.66
2023-02-15T17:45:40.253Z,101063.97
2023-02-15T17:47:09.482Z,101068.44
2023-02-15T17:48:50.958Z,101061.41
2023-02-15T17:50:33.005Z,101052.81
2023-02-15T17:52:23.978Z,101054.72
2023-02-15T17:54:58.198Z,101043.94
2023-02-15T17:56:51.621Z,101031.69
2023-02-15T17:58:56.416Z,101065.66
2023-02-15T18:00:44.964Z,101036.91
2023-02-15T18:02:34.152Z,101034.72
2023-02-15T18:07:37.863Z,101040.44
2023-02-15T18:09:20.547Z,101048.53
2023-02-15T18:11:00.634Z,101036.28
2023-02-15T18:12:31.578Z,101048.44
2023-02-15T18:14:10.956Z,101055.34
2023-02-15T18:16:24.660Z,101050.22
2023-02-15T18:17:48.074Z,101064.63
2023-02-15T18:19:31.024Z,101045.63
2023-02-15T18:21:15.665Z,101038.72
2023-02-15T18:22:41.392Z,101054.31
2023-02-15T18:24:21.689Z,101050.22
2023-02-15T18:26:32.793Z,101056.38
2023-02-15T18:28:20.308Z,101053.81
2023-02-15T18:33:00.474Z,101035.50
2023-02-15T18:34:33.120Z,101037.44
2023-02-15T18:36:02.832Z,101050.31
2023-02-15T18:37:30.473Z,101039.25
2023-02-15T18:39:07.776Z,101037.56
2023-02-15T18:41:13.213Z,101039.25
2023-02-15T18:45:56.381Z,101037.53
2023-02-15T18:46:17.933Z,101040.34
2023-02-15T18:49:52.795Z,101039.56
2023-02-15T18:52:18.646Z,101035.09
2023-02-15T19:00:37.725Z,101046.53
2023-02-15T19:04:32.910Z,101013.22
2023-02-15T19:05:58.558Z,101033.94
2023-02-15T19:07:40.218Z,101030.44
2023-02-15T19:09:21.832Z,101026.88
2023-02-15T19:11:23.502Z,101012.56
2023-02-15T19:13:20.233Z,101016.94
2023-02-15T19:14:48.896Z,101019.47
2023-02-15T19:16:27.452Z,101017.66
2023-02-15T19:18:00.673Z,101001.41
2023-02-15T19:19:31.346Z,101009.41
2023-02-15T19:21:00.490Z,101000.34
2023-02-15T19:22:29.885Z,100993.56
2023-02-15T19:24:25.372Z,101016.94
2023-02-15T19:25:56.626Z,101012.69
2023-02-15T19:27:29.453Z,100997.91
2023-02-15T19:31:50.320Z,101003.69
2023-02-15T19:33:49.224Z,100990.94
2023-02-15T19:35:28.892Z,100992.88
2023-02-15T19:37:36.593Z,101015.28
2023-02-15T19:41:18.028Z,100992.59
2023-02-15T19:42:08.997Z,100994.63
2023-02-15T19:43:44.734Z,100994.75
2023-02-15T19:47:07.672Z,101005.16
2023-02-15T19:48:35.926Z,100999.53
2023-02-15T19:50:32.898Z,100991.06
2023-02-15T19:52:20.512Z,101000.19
2023-02-15T19:53:47.500Z,101006.34
2023-02-15T19:56:13.554Z,100997.00
2023-02-15T19:57:41.448Z,100984.06
2023-02-15T20:08:37.414Z,100981.88
2023-02-15T20:10:06.575Z,100993.75
2023-02-15T20:11:41.236Z,100981.97
2023-02-15T20:13:27.120Z,100981.88
2023-02-15T20:17:18.284Z,100981.97
2023-02-15T20:18:49.763Z,100983.16
2023-02-15T20:20:17.884Z,100990.81
2023-02-15T20:21:55.156Z,100986.34
2023-02-15T20:24:09.620Z,100997.59
2023-02-15T20:25:54.848Z,100985.59
2023-02-15T20:32:34.160Z,100983.03
2023-02-15T20:34:16.362Z,100971.13
2023-02-15T20:36:26.355Z,100979.13
2023-02-15T20:38:29.880Z,100973.09
2023-02-15T20:40:12.296Z,100982.66
2023-02-15T20:41:38.414Z,100969.69
2023-02-15T20:43:28.005Z,100958.63
2023-02-15T20:45:59.442Z,100964.59
2023-02-15T20:48:05.444Z,100956.19
2023-02-15T20:54:24.373Z,100977.16
2023-02-15T20:57:21.890Z,100977.38
2023-02-15T20:59:41.486Z,100965.47
2023-02-15T21:03:31.198Z,100959.72
2023-02-15T22:00:42.418Z,100938.53
2023-02-15T22:03:08.792Z,100941.06
2023-02-15T22:05:17.121Z,100908.34
2023-02-15T22:16:08.039Z,100933.94
2023-02-15T22:17:44.824Z,100912.38
2023-02-15T22:20:12.663Z,100903.28
2023-02-15T22:21:47.766Z,100913.34
2023-02-15T22:24:50.429Z,100923.00
2023-02-15T22:26:08.919Z,100905.28
2023-02-15T22:27:47.854Z,100905.28
2023-02-15T22:29:23.706Z,100895.63
